Tinnie, New Mexico
Current Conditions -  °F | °C
As of 5:51 PM on Friday 24 Oct 2014 (Local Time) from KROW Reporting Station
Clear Clear  
Wind Chill: 77°   Ceiling: Unl
Heat Index: 78°   Visibility: 10mi
Dew Point: 53°   Wind: 8mph
Humidity: 43%   Direction: 160°SSE
Pressure: 30.12"   Gusts: NA
Location:  33.37°N, 105.23°W
Report Text: KROW 242351Z 16007KT 10SM CLR 25/12 A3012 RMK AO2 SLP154 T02500117 10283 20233 58003
Loading
Personal Weather Stations






























Interactive Weather Map
Tropical Storm Tracking
New forecast layout! Learn more

10-Day Weather Forecast

Advertisements
Track Severe Weather on mobile